Time;durP1;ratioP1;P1;durP2;ratioP2;P2;SDS_P1;SDS_P2;PMS_P1;PMS_P2;Temp;Humidity;BMP_temperature;BMP_pressure;BME280_temperature;BME280_humidity;BME280_pressure;Samples;Min_cycle;Max_cycle;Signal;HPM_P1;HPM_P2
2021/10/22 00:00:14;;;;;;;;;;;21.20;62.70;;;;;;5052470;28;1112;-72
2021/10/22 00:02:39;;;;;;;;;;;21.10;62.70;;;;;;5036486;28;1123;-72
2021/10/22 00:05:05;;;;;;;;;;;21.10;62.70;;;;;;5036215;28;1355;-72
2021/10/22 00:07:30;;;;;;;;;;;21.10;62.70;;;;;;5033711;28;1535;-71
2021/10/22 00:09:57;;;;;;;;;;;21.10;62.70;;;;;;5050211;28;2231;-71
2021/10/22 00:12:22;;;;;;;;;;;21.10;62.80;;;;;;5051970;28;1401;-71
2021/10/22 00:14:47;;;;;;;;;;;21.10;62.80;;;;;;5034793;28;1377;-71
2021/10/22 00:17:13;;;;;;;;;;;21.10;62.80;;;;;;5052146;28;1070;-71
2021/10/22 00:19:39;;;;;;;;;;;21.10;62.80;;;;;;5052208;28;1186;-71
2021/10/22 00:22:04;;;;;;;;;;;21.10;62.90;;;;;;5034309;28;1268;-72
2021/10/22 00:24:30;;;;;;;;;;;21.10;62.90;;;;;;5051509;28;1270;-71
2021/10/22 00:26:55;;;;;;;;;;;21.10;62.90;;;;;;5052053;28;1067;-71
2021/10/22 00:29:21;;;;;;;;;;;21.10;62.90;;;;;;5051992;28;1134;-72
2021/10/22 00:31:46;;;;;;;;;;;21.10;63.00;;;;;;5051916;28;1974;-72
2021/10/22 00:34:11;;;;;;;;;;;21.10;63.00;;;;;;5051753;28;1408;-71
2021/10/22 00:36:37;;;;;;;;;;;21.10;63.00;;;;;;5053631;28;1055;-71
2021/10/22 00:39:03;;;;;;;;;;;21.10;63.00;;;;;;5037610;28;1175;-71
2021/10/22 00:41:28;;;;;;;;;;;21.00;63.00;;;;;;5037471;28;1531;-71
2021/10/22 00:43:54;;;;;;;;;;;21.00;63.00;;;;;;5037445;28;1276;-71
2021/10/22 00:46:19;;;;;;;;;;;21.00;63.00;;;;;;5055230;28;1198;-71
2021/10/22 00:48:45;;;;;;;;;;;21.00;63.00;;;;;;5055304;28;1075;-72
2021/10/22 00:51:11;;;;;;;;;;;21.00;63.10;;;;;;5055253;28;1934;-71
2021/10/22 00:53:37;;;;;;;;;;;21.00;63.10;;;;;;5055546;28;1294;-71
2021/10/22 00:56:04;;;;;;;;;;;21.00;63.10;;;;;;5037033;28;1107;-71
2021/10/22 00:58:29;;;;;;;;;;;21.00;63.10;;;;;;5037240;28;1155;-72
2021/10/22 01:00:55;;;;;;;;;;;21.00;63.10;;;;;;5055143;28;1150;-72
2021/10/22 01:03:20;;;;;;;;;;;21.00;63.20;;;;;;5054974;28;1322;-71
2021/10/22 01:05:46;;;;;;;;;;;21.00;63.20;;;;;;5036935;28;1178;-72
2021/10/22 01:08:11;;;;;;;;;;;21.00;63.20;;;;;;5037044;28;1187;-71
2021/10/22 01:10:37;;;;;;;;;;;21.00;63.20;;;;;;5054675;28;1964;-71
2021/10/22 01:13:03;;;;;;;;;;;21.00;63.20;;;;;;5055918;28;1275;-72
2021/10/22 01:15:28;;;;;;;;;;;21.00;63.20;;;;;;5054694;28;1320;-72
2021/10/22 01:17:55;;;;;;;;;;;21.00;63.30;;;;;;5054733;28;1075;-71
2021/10/22 01:20:21;;;;;;;;;;;21.00;63.30;;;;;;5054825;28;1418;-71
2021/10/22 01:22:47;;;;;;;;;;;21.00;63.30;;;;;;5054652;28;1378;-71
2021/10/22 01:25:13;;;;;;;;;;;21.00;63.30;;;;;;5036467;28;1251;-71
2021/10/22 01:27:39;;;;;;;;;;;21.00;63.30;;;;;;5054546;28;1412;-71
2021/10/22 01:30:05;;;;;;;;;;;21.00;63.30;;;;;;5036796;28;1909;-71
2021/10/22 01:32:31;;;;;;;;;;;21.00;63.40;;;;;;5020141;28;1378;-72
2021/10/22 01:34:56;;;;;;;;;;;21.00;63.30;;;;;;5054186;28;1337;-71
2021/10/22 01:37:21;;;;;;;;;;;21.00;63.40;;;;;;5036594;28;1346;-72
2021/10/22 01:39:47;;;;;;;;;;;20.90;63.30;;;;;;5054185;28;1365;-71
2021/10/22 01:42:12;;;;;;;;;;;20.90;63.30;;;;;;5054299;28;1148;-72
2021/10/22 01:44:38;;;;;;;;;;;20.90;63.40;;;;;;5053940;28;1208;-71
2021/10/22 01:47:03;;;;;;;;;;;20.90;63.40;;;;;;5036074;28;1214;-71
2021/10/22 01:49:29;;;;;;;;;;;20.90;63.40;;;;;;5054363;28;1357;-71
2021/10/22 01:51:54;;;;;;;;;;;20.90;63.40;;;;;;5036236;28;1902;-71
2021/10/22 01:54:19;;;;;;;;;;;20.90;63.40;;;;;;5053606;28;1311;-72
2021/10/22 01:56:46;;;;;;;;;;;20.90;63.40;;;;;;5036106;28;1127;-71
2021/10/22 01:59:11;;;;;;;;;;;20.90;63.50;;;;;;5036250;28;1281;-71
2021/10/22 02:01:37;;;;;;;;;;;20.90;63.40;;;;;;5036172;28;1416;-72
2021/10/22 02:04:02;;;;;;;;;;;20.90;63.50;;;;;;5035893;28;1403;-71
2021/10/22 02:06:28;;;;;;;;;;;20.90;63.50;;;;;;5035793;28;1493;-71
2021/10/22 02:08:56;;;;;;;;;;;20.90;63.50;;;;;;5053395;28;1361;-71
2021/10/22 02:11:22;;;;;;;;;;;20.90;63.50;;;;;;5053514;28;1918;-71
2021/10/22 02:13:47;;;;;;;;;;;20.90;63.50;;;;;;5036814;28;1485;-71
2021/10/22 02:16:13;;;;;;;;;;;20.90;63.60;;;;;;5053732;28;1335;-71
2021/10/22 02:18:39;;;;;;;;;;;20.90;63.60;;;;;;5053685;28;1291;-71
2021/10/22 02:21:04;;;;;;;;;;;20.90;63.60;;;;;;5053587;28;1122;-72
2021/10/22 02:23:29;;;;;;;;;;;20.90;63.60;;;;;;5053043;28;1287;-71
2021/10/22 02:25:55;;;;;;;;;;;20.90;63.60;;;;;;5035457;28;1283;-71
2021/10/22 02:28:20;;;;;;;;;;;20.90;63.70;;;;;;5053516;28;1414;-71
2021/10/22 02:30:47;;;;;;;;;;;20.90;63.60;;;;;;5053327;28;1910;-72
2021/10/22 02:33:13;;;;;;;;;;;20.90;63.70;;;;;;5053509;28;1374;-72
2021/10/22 02:35:38;;;;;;;;;;;20.90;63.70;;;;;;5035420;28;1139;-72
2021/10/22 02:38:04;;;;;;;;;;;20.90;63.60;;;;;;5035302;28;1333;-71
2021/10/22 02:40:29;;;;;;;;;;;20.90;63.70;;;;;;5035415;28;1389;-72
2021/10/22 02:42:55;;;;;;;;;;;20.90;63.70;;;;;;5053138;28;1024;-72
2021/10/22 02:45:20;;;;;;;;;;;20.80;63.60;;;;;;5052919;28;1217;-72
2021/10/22 02:47:46;;;;;;;;;;;20.90;63.70;;;;;;5035354;28;1076;-72
2021/10/22 02:50:11;;;;;;;;;;;20.90;63.70;;;;;;5035205;28;1905;-71
2021/10/22 02:52:37;;;;;;;;;;;20.90;63.70;;;;;;5034997;28;1146;-72
2021/10/22 02:55:02;;;;;;;;;;;20.90;63.80;;;;;;5034827;28;1524;-71
2021/10/22 02:57:28;;;;;;;;;;;20.90;63.80;;;;;;5035190;28;1048;-72
2021/10/22 02:59:53;;;;;;;;;;;20.80;63.70;;;;;;5052360;28;1063;-72
2021/10/22 03:02:18;;;;;;;;;;;20.80;63.70;;;;;;5052974;28;1083;-72
2021/10/22 03:04:44;;;;;;;;;;;20.80;63.70;;;;;;5052695;28;1357;-72
2021/10/22 03:07:10;;;;;;;;;;;20.80;63.70;;;;;;5052941;28;1063;-72
2021/10/22 03:09:35;;;;;;;;;;;20.80;63.80;;;;;;5052657;28;1292;-72
2021/10/22 03:12:01;;;;;;;;;;;20.80;63.80;;;;;;5052982;28;1898;-71
2021/10/22 03:14:26;;;;;;;;;;;20.80;63.80;;;;;;5053606;28;1378;-71
2021/10/22 03:16:52;;;;;;;;;;;20.80;63.80;;;;;;5052771;28;1374;-72
2021/10/22 03:19:17;;;;;;;;;;;20.80;63.80;;;;;;5053080;28;1099;-72
2021/10/22 03:21:43;;;;;;;;;;;20.90;63.90;;;;;;5052499;28;1071;-72
2021/10/22 03:24:08;;;;;;;;;;;20.80;63.80;;;;;;5052184;28;1357;-71
2021/10/22 03:26:34;;;;;;;;;;;20.80;63.90;;;;;;5052733;28;1247;-71
2021/10/22 03:28:59;;;;;;;;;;;20.80;63.80;;;;;;5034659;28;1199;-72
2021/10/22 03:31:25;;;;;;;;;;;20.80;63.80;;;;;;5052646;28;1902;-72
2021/10/22 03:33:50;;;;;;;;;;;20.80;63.80;;;;;;5052689;28;1371;-72
2021/10/22 03:36:16;;;;;;;;;;;20.80;63.90;;;;;;5052270;28;1082;-72
2021/10/22 03:38:41;;;;;;;;;;;20.80;63.80;;;;;;5034843;28;1297;-72
2021/10/22 03:41:07;;;;;;;;;;;20.80;63.80;;;;;;5052660;28;1063;-71
2021/10/22 03:43:35;;;;;;;;;;;20.80;63.80;;;;;;5052931;28;1349;-72
2021/10/22 03:46:02;;;;;;;;;;;20.80;63.80;;;;;;5052325;28;1114;-72
2021/10/22 03:48:27;;;;;;;;;;;20.90;63.70;;;;;;5052851;28;1294;-71
2021/10/22 03:50:53;;;;;;;;;;;20.90;63.70;;;;;;5052248;28;1952;-72
2021/10/22 03:53:18;;;;;;;;;;;20.90;63.60;;;;;;5052178;28;1336;-71
2021/10/22 03:55:44;;;;;;;;;;;20.90;63.50;;;;;;5052172;28;1272;-72
2021/10/22 03:58:09;;;;;;;;;;;21.00;63.40;;;;;;5052257;28;1060;-71
2021/10/22 04:00:34;;;;;;;;;;;21.00;63.30;;;;;;5052674;28;1198;-71
2021/10/22 04:03:00;;;;;;;;;;;21.00;63.20;;;;;;5034567;28;1389;-71
2021/10/22 04:05:25;;;;;;;;;;;21.10;63.20;;;;;;5017588;28;1455;-71
2021/10/22 04:07:51;;;;;;;;;;;21.10;63.10;;;;;;5051975;28;1105;-72
2021/10/22 04:10:16;;;;;;;;;;;21.10;63.00;;;;;;5053406;28;1901;-71
2021/10/22 04:12:42;;;;;;;;;;;21.10;62.90;;;;;;5039464;28;1287;-71
2021/10/22 04:15:07;;;;;;;;;;;21.10;62.80;;;;;;5055783;28;1314;-71
2021/10/22 04:17:33;;;;;;;;;;;21.10;62.70;;;;;;5055912;28;1379;-71
2021/10/22 04:19:58;;;;;;;;;;;21.20;62.70;;;;;;5055905;28;1282;-71
2021/10/22 04:22:24;;;;;;;;;;;21.20;62.70;;;;;;5055719;28;1162;-71
2021/10/22 04:24:49;;;;;;;;;;;21.20;62.60;;;;;;5037529;28;1316;-71
2021/10/22 04:27:15;;;;;;;;;;;21.20;62.50;;;;;;5056047;28;1102;-72
2021/10/22 04:29:40;;;;;;;;;;;21.20;62.50;;;;;;5037925;28;1213;-71
2021/10/22 04:32:05;;;;;;;;;;;21.20;62.40;;;;;;5055537;28;1894;-71
2021/10/22 04:34:33;;;;;;;;;;;21.20;62.40;;;;;;5055255;28;1721;-71
2021/10/22 04:42:43;;;;;;;;;;;21.30;62.30;;;;;;5032224;28;1320;-71
2021/10/22 04:45:09;;;;;;;;;;;21.30;62.30;;;;;;5037124;28;1250;-71
2021/10/22 04:47:34;;;;;;;;;;;21.30;63.00;;;;;;5037713;28;1330;-71
2021/10/22 04:50:00;;;;;;;;;;;21.30;62.20;;;;;;5055480;28;1967;-71
2021/10/22 04:52:25;;;;;;;;;;;21.30;62.20;;;;;;5035617;28;1226;-71
2021/10/22 04:54:51;;;;;;;;;;;21.30;62.20;;;;;;5035516;28;1224;-71
2021/10/22 04:57:16;;;;;;;;;;;21.30;62.20;;;;;;5055162;28;1245;-72
2021/10/22 04:59:42;;;;;;;;;;;21.30;62.20;;;;;;5041861;28;1060;-71
2021/10/22 05:02:07;;;;;;;;;;;21.30;62.10;;;;;;5035103;28;1119;-71
2021/10/22 05:04:32;;;;;;;;;;;21.30;62.10;;;;;;5034830;28;1314;-71
2021/10/22 05:06:58;;;;;;;;;;;21.30;62.10;;;;;;5035113;28;1733;-71
2021/10/22 05:09:23;;;;;;;;;;;21.30;62.00;;;;;;5030734;28;1253;-72
2021/10/22 05:11:49;;;;;;;;;;;21.30;62.00;;;;;;5054962;28;1906;-71
2021/10/22 05:14:14;;;;;;;;;;;21.30;62.00;;;;;;5037456;28;1374;-71
2021/10/22 05:16:40;;;;;;;;;;;21.30;62.00;;;;;;5055118;28;1389;-72
2021/10/22 05:19:05;;;;;;;;;;;21.40;62.00;;;;;;5054719;28;1075;-72
2021/10/22 05:21:31;;;;;;;;;;;21.30;62.00;;;;;;5054188;28;1249;-71
2021/10/22 05:23:56;;;;;;;;;;;21.40;62.00;;;;;;5037377;28;1229;-72
2021/10/22 05:26:21;;;;;;;;;;;21.30;61.90;;;;;;5055417;28;1092;-72
2021/10/22 05:28:47;;;;;;;;;;;21.40;62.00;;;;;;5055538;28;1111;-72
2021/10/22 05:31:12;;;;;;;;;;;21.40;62.00;;;;;;5055433;28;1910;-72
2021/10/22 05:33:38;;;;;;;;;;;21.40;61.90;;;;;;5037529;28;1401;-73
2021/10/22 05:36:03;;;;;;;;;;;21.40;62.00;;;;;;5054851;28;1134;-72
2021/10/22 05:38:30;;;;;;;;;;;21.40;62.00;;;;;;5055479;28;1075;-72
2021/10/22 05:40:55;;;;;;;;;;;21.40;61.90;;;;;;5036358;28;1106;-72
2021/10/22 05:43:21;;;;;;;;;;;21.40;61.90;;;;;;5035492;28;1361;-72
2021/10/22 05:45:46;;;;;;;;;;;21.40;61.90;;;;;;5048752;28;1100;-72
2021/10/22 05:48:12;;;;;;;;;;;21.40;62.70;;;;;;5047521;28;1150;-72
2021/10/22 05:50:39;;;;;;;;;;;21.40;61.90;;;;;;5056391;28;1886;-72
2021/10/22 05:53:04;;;;;;;;;;;21.40;61.90;;;;;;5055627;28;1276;-72
2021/10/22 05:55:30;;;;;;;;;;;21.40;61.90;;;;;;5023454;28;1199;-72
2021/10/22 05:57:56;;;;;;;;;;;21.40;61.80;;;;;;5024935;28;1111;-68
2021/10/22 06:00:22;;;;;;;;;;;21.40;61.70;;;;;;5034211;28;1339;-68
2021/10/22 06:02:50;;;;;;;;;;;21.40;59.00;;;;;;5034026;28;1166;-68
2021/10/22 06:05:16;;;;;;;;;;;21.40;58.40;;;;;;5033522;28;1271;-69
2021/10/22 06:07:41;;;;;;;;;;;21.40;58.10;;;;;;5033941;28;1252;-68
2021/10/22 06:10:07;;;;;;;;;;;21.40;57.00;;;;;;5045773;28;1960;-67
2021/10/22 06:12:32;;;;;;;;;;;21.40;58.30;;;;;;5051183;28;2081;-70
2021/10/22 06:14:57;;;;;;;;;;;21.40;56.90;;;;;;5053400;28;1716;-69
2021/10/22 06:17:23;;;;;;;;;;;21.40;56.40;;;;;;5052376;28;1331;-70
2021/10/22 06:19:51;;;;;;;;;;;21.40;57.10;;;;;;5034519;28;1330;-66
2021/10/22 06:22:22;;;;;;;;;;;21.40;56.50;;;;;;5016348;28;1207;-67
2021/10/22 06:24:47;;;;;;;;;;;21.30;55.80;;;;;;5033187;28;1332;-71
2021/10/22 06:27:13;;;;;;;;;;;21.40;56.30;;;;;;5033651;28;1415;-71
2021/10/22 06:29:41;;;;;;;;;;;21.30;55.70;;;;;;5034874;28;1302;-71
2021/10/22 06:32:07;;;;;;;;;;;21.30;54.40;;;;;;5034441;28;1894;-67
2021/10/22 06:34:32;;;;;;;;;;;21.30;55.10;;;;;;5032640;28;1330;-71
2021/10/22 06:36:58;;;;;;;;;;;21.30;54.10;;;;;;5015777;28;1636;-71
2021/10/22 06:39:24;;;;;;;;;;;21.30;54.30;;;;;;5033671;28;1429;-69
2021/10/22 06:41:50;;;;;;;;;;;21.30;53.90;;;;;;5033343;28;1306;-71
2021/10/22 06:44:18;;;;;;;;;;;21.30;54.00;;;;;;5015405;28;1427;-68
2021/10/22 06:46:43;;;;;;;;;;;21.30;53.80;;;;;;5016060;28;1389;-66
2021/10/22 06:49:08;;;;;;;;;;;21.30;53.00;;;;;;5015456;28;1441;-67
2021/10/22 06:51:34;;;;;;;;;;;21.30;53.30;;;;;;5042777;28;2163;-67
2021/10/22 06:54:00;;;;;;;;;;;21.30;52.90;;;;;;5052778;28;1362;-68
2021/10/22 06:56:25;;;;;;;;;;;21.30;53.70;;;;;;5050689;28;1902;-68
2021/10/22 06:58:51;;;;;;;;;;;21.20;52.40;;;;;;5052732;28;1124;-67
2021/10/22 07:01:16;;;;;;;;;;;21.30;52.50;;;;;;5052977;28;1259;-68
2021/10/22 07:03:43;;;;;;;;;;;21.20;53.20;;;;;;5052639;28;1318;-68
2021/10/22 07:07:14;;;;;;;;;;;21.20;52.00;;;;;;5052477;28;1241;-69
2021/10/22 07:08:55;;;;;;;;;;;21.20;52.60;;;;;;5043304;28;1775;-71
2021/10/22 07:11:20;;;;;;;;;;;21.20;51.10;;;;;;5031075;28;1910;-71
2021/10/22 07:13:56;;;;;;;;;;;21.30;51.10;;;;;;5030097;28;1284;-70
2021/10/22 07:16:23;;;;;;;;;;;21.30;51.40;;;;;;5027844;28;1504;-71
2021/10/22 07:18:51;;;;;;;;;;;21.30;51.60;;;;;;5045828;28;1172;-72
2021/10/22 07:21:18;;;;;;;;;;;21.30;51.70;;;;;;5028540;28;1287;-70
2021/10/22 07:23:45;;;;;;;;;;;21.40;52.20;;;;;;5027087;28;1391;-71
2021/10/22 07:26:11;;;;;;;;;;;21.40;52.60;;;;;;5046003;28;1666;-71
2021/10/22 07:28:36;;;;;;;;;;;21.40;52.90;;;;;;5029828;28;1216;-70
2021/10/22 07:31:01;;;;;;;;;;;21.40;53.30;;;;;;5044044;28;1974;-72
2021/10/22 07:33:27;;;;;;;;;;;21.40;53.70;;;;;;5045127;28;1319;-72
2021/10/22 07:35:55;;;;;;;;;;;21.40;53.90;;;;;;5054981;28;1285;-70
2021/10/22 07:38:21;;;;;;;;;;;21.50;54.20;;;;;;5009805;28;1673;-72
2021/10/22 07:40:46;;;;;;;;;;;21.50;54.70;;;;;;5018682;28;1138;-71
2021/10/22 07:43:16;;;;;;;;;;;21.60;55.00;;;;;;5043710;28;1342;-71
2021/10/22 07:45:42;;;;;;;;;;;21.60;55.20;;;;;;5037961;28;1342;-71
2021/10/22 07:48:07;;;;;;;;;;;21.70;55.30;;;;;;5022628;28;1279;-71
2021/10/22 07:50:33;;;;;;;;;;;21.70;55.30;;;;;;5039812;28;1957;-72
2021/10/22 07:52:58;;;;;;;;;;;21.80;55.30;;;;;;5022931;28;1318;-72
2021/10/22 07:55:23;;;;;;;;;;;21.90;55.30;;;;;;5021550;28;1375;-71
2021/10/22 07:57:49;;;;;;;;;;;22.00;55.30;;;;;;5021856;28;1293;-72
2021/10/22 08:00:14;;;;;;;;;;;22.00;55.20;;;;;;5022028;28;1998;-71
2021/10/22 08:02:40;;;;;;;;;;;22.10;55.20;;;;;;5042101;28;1234;-71
2021/10/22 08:05:07;;;;;;;;;;;22.20;55.30;;;;;;5038485;28;1319;-71
2021/10/22 08:07:37;;;;;;;;;;;22.20;55.20;;;;;;5038759;28;1285;-71
2021/10/22 08:10:02;;;;;;;;;;;22.20;55.20;;;;;;5058292;28;1296;-70
2021/10/22 08:12:28;;;;;;;;;;;22.30;55.20;;;;;;5059611;28;1960;-71
2021/10/22 08:14:53;;;;;;;;;;;22.30;55.30;;;;;;5041660;28;1869;-71
2021/10/22 08:17:19;;;;;;;;;;;22.40;55.70;;;;;;5061744;28;1188;-72
2021/10/22 08:19:51;;;;;;;;;;;22.40;55.60;;;;;;5061586;28;1404;-70
2021/10/22 08:22:27;;;;;;;;;;;22.40;55.60;;;;;;5061399;28;1094;-71
2021/10/22 08:24:53;;;;;;;;;;;22.50;55.70;;;;;;5046954;28;1273;-71
2021/10/22 08:27:19;;;;;;;;;;;22.50;55.70;;;;;;5023948;28;1302;-71
2021/10/22 08:29:45;;;;;;;;;;;22.50;56.00;;;;;;5039098;28;1023;-70
2021/10/22 08:32:10;;;;;;;;;;;22.50;55.90;;;;;;5058622;28;1898;-71
2021/10/22 08:34:36;;;;;;;;;;;22.50;55.90;;;;;;5058324;28;1629;-72
2021/10/22 08:37:01;;;;;;;;;;;22.50;55.80;;;;;;5040676;28;1143;-71
2021/10/22 08:39:27;;;;;;;;;;;22.60;56.10;;;;;;5058936;28;1429;-71
2021/10/22 08:41:52;;;;;;;;;;;22.50;56.10;;;;;;5059097;28;1382;-71
2021/10/22 08:44:18;;;;;;;;;;;22.60;56.20;;;;;;5040977;28;1383;-71
2021/10/22 08:46:45;;;;;;;;;;;22.60;56.30;;;;;;5040971;28;1303;-70
2021/10/22 08:49:12;;;;;;;;;;;22.60;56.40;;;;;;5061004;28;1373;-72
2021/10/22 08:51:38;;;;;;;;;;;22.60;56.40;;;;;;5060515;28;1947;-71
2021/10/22 08:54:03;;;;;;;;;;;22.60;56.60;;;;;;5058156;28;1486;-70
2021/10/22 08:56:29;;;;;;;;;;;22.60;56.80;;;;;;5057431;28;1227;-72
2021/10/22 08:58:54;;;;;;;;;;;22.60;57.00;;;;;;5058415;28;1307;-71
2021/10/22 09:01:19;;;;;;;;;;;22.60;56.90;;;;;;5058246;28;1459;-71
2021/10/22 09:03:45;;;;;;;;;;;22.50;57.10;;;;;;5058509;28;1301;-72
2021/10/22 09:06:14;;;;;;;;;;;22.50;57.10;;;;;;5059420;28;1334;-72
2021/10/22 09:08:41;;;;;;;;;;;22.50;57.40;;;;;;5041266;28;1362;-72
2021/10/22 09:11:18;;;;;;;;;;;22.50;57.40;;;;;;5057361;28;1891;-71
2021/10/22 09:13:43;;;;;;;;;;;22.60;57.50;;;;;;5040808;28;2027;-72
2021/10/22 09:16:22;;;;;;;;;;;22.50;57.50;;;;;;5053211;28;1955;-72
2021/10/22 09:18:48;;;;;;;;;;;22.50;57.60;;;;;;5039565;28;1232;-72
2021/10/22 09:21:13;;;;;;;;;;;22.50;57.60;;;;;;5039917;28;1457;-72
2021/10/22 09:23:40;;;;;;;;;;;22.50;57.60;;;;;;5040716;28;1364;-71
2021/10/22 09:26:14;;;;;;;;;;;22.50;57.70;;;;;;5042308;28;1335;-72
2021/10/22 09:28:39;;;;;;;;;;;22.50;57.80;;;;;;5039575;28;1290;-71
2021/10/22 09:31:09;;;;;;;;;;;22.50;57.80;;;;;;5056802;28;1902;-71
2021/10/22 09:33:34;;;;;;;;;;;22.50;58.00;;;;;;5056075;28;1444;-71
2021/10/22 09:36:00;;;;;;;;;;;22.50;58.10;;;;;;5037555;28;1185;-72
2021/10/22 09:38:26;;;;;;;;;;;22.50;58.10;;;;;;5055276;28;1075;-72
2021/10/22 09:40:53;;;;;;;;;;;22.50;58.10;;;;;;5037730;28;1448;-71
2021/10/22 09:43:26;;;;;;;;;;;22.50;58.10;;;;;;5055253;28;1293;-71
2021/10/22 09:45:52;;;;;;;;;;;22.50;58.20;;;;;;5037754;28;1353;-70
2021/10/22 09:48:20;;;;;;;;;;;22.50;58.30;;;;;;5053909;28;2109;-71
2021/10/22 09:50:46;;;;;;;;;;;22.50;58.30;;;;;;5055547;28;1936;-72
2021/10/22 09:53:25;;;;;;;;;;;22.50;58.40;;;;;;5054753;28;1987;-71
2021/10/22 09:56:01;;;;;;;;;;;22.50;58.60;;;;;;5055631;28;1139;-71
2021/10/22 09:58:27;;;;;;;;;;;22.50;58.60;;;;;;5054317;28;2049;-72
2021/10/22 10:01:05;;;;;;;;;;;22.50;58.80;;;;;;5054867;28;1842;-70
2021/10/22 10:03:31;;;;;;;;;;;22.50;58.90;;;;;;5057076;28;1309;-71
2021/10/22 10:05:56;;;;;;;;;;;22.50;58.90;;;;;;5036859;28;1130;-72
2021/10/22 10:08:21;;;;;;;;;;;22.50;59.00;;;;;;5052773;28;1501;-73
2021/10/22 10:10:47;;;;;;;;;;;22.50;59.00;;;;;;5055697;28;1887;-72
2021/10/22 10:13:12;;;;;;;;;;;22.50;59.00;;;;;;5038148;28;1386;-72
2021/10/22 10:15:39;;;;;;;;;;;22.50;59.10;;;;;;5054712;28;1266;-72
2021/10/22 10:18:09;;;;;;;;;;;22.50;59.10;;;;;;5037154;28;1313;-71
2021/10/22 10:20:35;;;;;;;;;;;22.50;59.10;;;;;;5036602;28;1285;-70
2021/10/22 10:23:02;;;;;;;;;;;22.50;59.20;;;;;;5053669;28;1372;-70
2021/10/22 10:25:27;;;;;;;;;;;22.50;59.10;;;;;;5035479;28;2137;-69
2021/10/22 10:27:53;;;;;;;;;;;22.50;59.10;;;;;;5053721;28;1390;-69
2021/10/22 10:30:26;;;;;;;;;;;22.50;59.30;;;;;;5053409;28;1906;-69
2021/10/22 10:32:52;;;;;;;;;;;22.50;59.30;;;;;;5053323;28;1412;-70
2021/10/22 10:35:17;;;;;;;;;;;22.50;59.30;;;;;;5053625;28;1332;-68
2021/10/22 10:37:43;;;;;;;;;;;22.40;59.30;;;;;;5053568;28;1408;-70
2021/10/22 10:40:13;;;;;;;;;;;22.50;59.40;;;;;;5035460;28;1361;-70
2021/10/22 10:42:38;;;;;;;;;;;22.50;59.40;;;;;;5035457;28;1295;-70
2021/10/22 10:45:25;;;;;;;;;;;22.50;59.40;;;;;;5053043;28;1282;-70
2021/10/22 10:47:58;;;;;;;;;;;22.50;59.50;;;;;;5053543;28;1274;-70
2021/10/22 10:50:23;;;;;;;;;;;22.40;59.50;;;;;;5053255;28;1963;-70
2021/10/22 10:52:52;;;;;;;;;;;22.40;59.50;;;;;;5053401;28;1060;-71
2021/10/22 10:55:29;;;;;;;;;;;22.40;59.50;;;;;;5048258;28;1307;-71
2021/10/22 10:57:58;;;;;;;;;;;22.40;59.60;;;;;;5032990;28;1264;-69
2021/10/22 11:00:31;;;;;;;;;;;22.40;59.60;;;;;;5015470;28;1327;-71
2021/10/22 11:03:02;;;;;;;;;;;22.40;59.70;;;;;;5015684;28;1323;-71
2021/10/22 11:05:47;;;;;;;;;;;22.40;59.70;;;;;;5033182;28;1279;-72
2021/10/22 11:08:20;;;;;;;;;;;22.40;59.70;;;;;;5036543;28;2072;-71
2021/10/22 11:11:07;;;;;;;;;;;22.40;59.80;;;;;;5053643;28;1985;-71
2021/10/22 11:13:41;;;;;;;;;;;22.40;59.80;;;;;;5048464;28;1316;-72
2021/10/22 11:16:10;;;;;;;;;;;22.40;60.00;;;;;;5054076;28;1082;-72
2021/10/22 11:18:36;;;;;;;;;;;22.40;59.90;;;;;;5035265;28;1728;-71
2021/10/22 11:21:02;;;;;;;;;;;22.40;60.00;;;;;;5029659;28;1507;-69
2021/10/22 11:23:27;;;;;;;;;;;22.40;60.00;;;;;;5052236;28;1372;-69
2021/10/22 11:25:56;;;;;;;;;;;22.40;60.10;;;;;;5034792;28;1278;-70
2021/10/22 11:28:29;;;;;;;;;;;22.40;60.10;;;;;;5033765;28;1453;-70
2021/10/22 11:30:55;;;;;;;;;;;22.30;60.00;;;;;;5033391;28;1902;-70
2021/10/22 11:33:20;;;;;;;;;;;22.40;60.20;;;;;;5034565;28;1515;-70
2021/10/22 11:35:47;;;;;;;;;;;22.40;60.20;;;;;;5052037;28;1079;-70
2021/10/22 11:38:12;;;;;;;;;;;22.30;60.20;;;;;;5018703;28;1542;-70
2021/10/22 11:40:38;;;;;;;;;;;22.40;60.30;;;;;;5034025;28;1979;-69
2021/10/22 11:43:07;;;;;;;;;;;22.30;60.30;;;;;;5052253;28;1377;-70
2021/10/22 11:45:32;;;;;;;;;;;22.40;60.40;;;;;;5052239;28;1367;-69
2021/10/22 11:47:58;;;;;;;;;;;22.40;60.80;;;;;;5034700;28;1616;-70
2021/10/22 11:50:25;;;;;;;;;;;22.40;60.70;;;;;;5051415;28;1894;-70
2021/10/22 11:53:11;;;;;;;;;;;22.30;60.80;;;;;;5023932;28;1605;-70
2021/10/22 11:55:37;;;;;;;;;;;22.40;60.90;;;;;;5021985;28;1698;-71
2021/10/22 11:58:04;;;;;;;;;;;22.40;60.90;;;;;;5034610;28;1545;-71
2021/10/22 12:00:30;;;;;;;;;;;22.30;61.00;;;;;;5052423;28;1665;-70
2021/10/22 12:02:55;;;;;;;;;;;22.30;61.00;;;;;;5052139;28;1627;-70
2021/10/22 12:05:21;;;;;;;;;;;22.30;60.20;;;;;;5051983;28;1336;-70
2021/10/22 12:07:47;;;;;;;;;;;22.30;56.50;;;;;;5052052;28;1258;-70
2021/10/22 12:10:14;;;;;;;;;;;22.20;54.30;;;;;;5032588;28;1290;-70
2021/10/22 12:12:47;;;;;;;;;;;22.10;53.10;;;;;;5026155;28;1903;-70
2021/10/22 12:15:18;;;;;;;;;;;22.10;52.00;;;;;;5025816;28;1330;-70
2021/10/22 12:17:44;;;;;;;;;;;22.00;51.30;;;;;;5023294;28;1327;-72
2021/10/22 12:20:09;;;;;;;;;;;21.90;49.80;;;;;;5024838;28;1231;-71
2021/10/22 12:22:38;;;;;;;;;;;21.90;49.60;;;;;;5032672;28;1240;-72
2021/10/22 12:25:22;;;;;;;;;;;21.80;49.70;;;;;;5033795;28;1292;-72
2021/10/22 12:27:55;;;;;;;;;;;21.80;49.60;;;;;;5034556;28;1294;-71
2021/10/22 12:30:22;;;;;;;;;;;21.80;50.60;;;;;;5048532;28;1914;-71
2021/10/22 12:32:55;;;;;;;;;;;21.70;50.30;;;;;;5011334;28;1524;-71
2021/10/22 12:35:27;;;;;;;;;;;21.70;52.60;;;;;;5024096;28;1469;-71
2021/10/22 12:38:04;;;;;;;;;;;21.70;54.00;;;;;;5023869;28;1885;-71
2021/10/22 12:40:34;;;;;;;;;;;21.60;56.00;;;;;;5052606;28;1286;-71
2021/10/22 12:43:07;;;;;;;;;;;21.60;55.50;;;;;;5048935;28;1261;-72
2021/10/22 12:45:33;;;;;;;;;;;21.60;55.10;;;;;;5058277;28;1346;-71
2021/10/22 12:48:06;;;;;;;;;;;21.60;54.70;;;;;;5043494;28;1096;-72
2021/10/22 12:50:33;;;;;;;;;;;21.60;54.90;;;;;;5017400;28;1953;-73
2021/10/22 12:52:59;;;;;;;;;;;21.50;53.20;;;;;;5017852;28;1280;-72
2021/10/22 12:55:25;;;;;;;;;;;21.50;55.80;;;;;;5034757;28;1330;-71
2021/10/22 12:57:51;;;;;;;;;;;21.50;54.20;;;;;;5017734;28;1298;-72
2021/10/22 13:00:17;;;;;;;;;;;21.50;55.50;;;;;;5017531;28;1199;-72
2021/10/22 13:02:42;;;;;;;;;;;21.40;54.60;;;;;;5035164;28;1360;-72
2021/10/22 13:05:10;;;;;;;;;;;21.40;54.20;;;;;;5016467;28;1323;-72
2021/10/22 13:07:52;;;;;;;;;;;21.40;54.80;;;;;;5035501;28;1298;-72
2021/10/22 13:10:26;;;;;;;;;;;21.40;54.90;;;;;;5039478;28;1221;-71
2021/10/22 13:20:22;;;;;;;;;;;21.40;55.20;;;;;;5054198;28;1427;-69
2021/10/22 13:20:56;;;;;;;;;;;21.30;53.00;;;;;;5054600;28;1372;-70
2021/10/22 13:23:21;;;;;;;;;;;21.30;55.00;;;;;;5036702;28;1387;-69
2021/10/22 13:25:47;;;;;;;;;;;21.20;54.70;;;;;;5019722;28;1308;-69
2021/10/22 13:28:16;;;;;;;;;;;21.20;55.60;;;;;;5054340;28;1306;-69
2021/10/22 13:30:43;;;;;;;;;;;21.20;55.50;;;;;;5036955;28;1973;-69
2021/10/22 13:33:14;;;;;;;;;;;21.20;55.60;;;;;;5045738;28;1277;-70
2021/10/22 13:35:40;;;;;;;;;;;21.20;55.70;;;;;;5042610;28;1092;-70
2021/10/22 13:38:07;;;;;;;;;;;21.20;55.80;;;;;;5042683;28;1296;-70
2021/10/22 13:40:32;;;;;;;;;;;21.20;56.00;;;;;;5043155;28;1184;-70
2021/10/22 13:42:58;;;;;;;;;;;21.20;55.90;;;;;;5025771;28;1449;-69
2021/10/22 13:45:23;;;;;;;;;;;21.20;55.70;;;;;;5021713;28;1355;-68
2021/10/22 13:47:49;;;;;;;;;;;21.10;56.10;;;;;;5054327;28;1321;-68
2021/10/22 13:50:14;;;;;;;;;;;21.10;55.80;;;;;;5054193;28;1331;-67
2021/10/22 13:52:40;;;;;;;;;;;21.10;55.80;;;;;;5036507;28;1965;-69
2021/10/22 13:55:05;;;;;;;;;;;21.10;55.50;;;;;;5053542;28;1272;-72
2021/10/22 13:57:31;;;;;;;;;;;21.10;55.40;;;;;;5036496;28;1348;-72
2021/10/22 13:59:56;;;;;;;;;;;21.10;54.90;;;;;;5038163;28;1272;-72
2021/10/22 14:02:22;;;;;;;;;;;21.10;54.90;;;;;;5056339;28;1338;-73
2021/10/22 14:04:47;;;;;;;;;;;21.10;55.10;;;;;;5038355;28;1441;-72
2021/10/22 14:07:13;;;;;;;;;;;21.10;54.90;;;;;;5056971;28;1351;-72
2021/10/22 14:09:39;;;;;;;;;;;21.10;54.70;;;;;;5038745;28;1507;-72
2021/10/22 14:12:13;;;;;;;;;;;21.10;54.70;;;;;;5038451;28;1907;-72
2021/10/22 14:14:48;;;;;;;;;;;21.10;54.70;;;;;;5037220;28;1316;-70
2021/10/22 14:30:40;;;;;;;;;;;21.10;55.20;;;;;;5052400;28;1902;-71
2021/10/22 14:33:08;;;;;;;;;;;21.10;55.40;;;;;;5034510;28;1405;-71
2021/10/22 14:35:34;;;;;;;;;;;21.00;55.40;;;;;;5052207;28;1133;-72
2021/10/22 14:37:59;;;;;;;;;;;21.00;55.50;;;;;;5034324;28;1184;-70
2021/10/22 14:40:26;;;;;;;;;;;21.00;55.60;;;;;;5052421;28;1298;-69
2021/10/22 14:42:52;;;;;;;;;;;21.00;55.70;;;;;;5053409;28;1621;-69
2021/10/22 14:45:35;;;;;;;;;;;21.00;55.70;;;;;;5051687;28;1392;-71
2021/10/22 14:48:05;;;;;;;;;;;21.00;55.90;;;;;;5052248;28;1242;-70
2021/10/22 14:50:31;;;;;;;;;;;21.00;55.90;;;;;;5052282;28;1902;-69
2021/10/22 14:57:51;;;;;;;;;;;21.00;56.10;;;;;;5026709;28;1159;-67